sensor_id;sensor_type;location;lat;lon;timestamp;pressure;altitude;pressure_sealevel;temperature;humidity
60854;BME280;48554;50.766;2.900;2022-10-26T00:00:25;100502.81;;;18.03;65.27
60854;BME280;48554;50.766;2.900;2022-10-26T00:02:46;100513.53;;;18.03;65.20
60854;BME280;48554;50.766;2.900;2022-10-26T00:05:06;100505.75;;;18.01;65.36
60854;BME280;48554;50.766;2.900;2022-10-26T00:07:29;100495.03;;;18.01;65.29
60854;BME280;48554;50.766;2.900;2022-10-26T00:09:50;100503.34;;;18.00;65.19
60854;BME280;48554;50.766;2.900;2022-10-26T00:12:10;100506.53;;;18.02;65.13
60854;BME280;48554;50.766;2.900;2022-10-26T00:14:30;100510.31;;;18.01;65.10
60854;BME280;48554;50.766;2.900;2022-10-26T00:16:50;100510.56;;;17.99;65.04
60854;BME280;48554;50.766;2.900;2022-10-26T00:19:11;100511.38;;;18.00;65.18
60854;BME280;48554;50.766;2.900;2022-10-26T00:21:31;100507.88;;;17.99;65.10
60854;BME280;48554;50.766;2.900;2022-10-26T00:23:51;100502.78;;;17.98;65.21
60854;BME280;48554;50.766;2.900;2022-10-26T00:26:11;100503.81;;;17.96;65.25
60854;BME280;48554;50.766;2.900;2022-10-26T00:28:32;100503.81;;;17.96;65.33
60854;BME280;48554;50.766;2.900;2022-10-26T00:30:52;100502.22;;;17.95;65.24
60854;BME280;48554;50.766;2.900;2022-10-26T00:33:13;100507.59;;;17.95;65.26
60854;BME280;48554;50.766;2.900;2022-10-26T00:35:33;100506.78;;;17.95;65.28
60854;BME280;48554;50.766;2.900;2022-10-26T00:37:54;100505.94;;;17.94;65.18
60854;BME280;48554;50.766;2.900;2022-10-26T00:40:14;100508.69;;;18.00;65.22
60854;BME280;48554;50.766;2.900;2022-10-26T00:42:35;100493.97;;;18.02;65.00
60854;BME280;48554;50.766;2.900;2022-10-26T00:44:58;100492.38;;;18.06;64.91
60854;BME280;48554;50.766;2.900;2022-10-26T00:47:29;100496.13;;;18.05;65.00
60854;BME280;48554;50.766;2.900;2022-10-26T00:49:53;100501.50;;;18.05;64.91
60854;BME280;48554;50.766;2.900;2022-10-26T00:52:16;100489.16;;;18.04;65.09
60854;BME280;48554;50.766;2.900;2022-10-26T00:54:37;100498.00;;;18.05;65.10
60854;BME280;48554;50.766;2.900;2022-10-26T00:56:59;100498.53;;;18.07;64.65
60854;BME280;48554;50.766;2.900;2022-10-26T00:59:20;100492.38;;;18.06;65.21
60854;BME280;48554;50.766;2.900;2022-10-26T01:01:45;100495.34;;;18.05;64.90
60854;BME280;48554;50.766;2.900;2022-10-26T01:04:06;100485.66;;;18.04;64.89
60854;BME280;48554;50.766;2.900;2022-10-26T01:06:32;100494.78;;;18.03;65.03
60854;BME280;48554;50.766;2.900;2022-10-26T01:08:53;100483.50;;;18.01;65.05
60854;BME280;48554;50.766;2.900;2022-10-26T01:11:13;100481.91;;;18.00;65.20
60854;BME280;48554;50.766;2.900;2022-10-26T01:13:36;100481.91;;;18.00;65.35
60854;BME280;48554;50.766;2.900;2022-10-26T01:18:39;100483.50;;;18.01;65.09
60854;BME280;48554;50.766;2.900;2022-10-26T01:31:36;100490.97;;;17.99;65.15
60854;BME280;48554;50.766;2.900;2022-10-26T01:34:23;100482.94;;;17.99;64.93
60854;BME280;48554;50.766;2.900;2022-10-26T01:36:53;100481.34;;;17.98;64.99
60854;BME280;48554;50.766;2.900;2022-10-26T01:39:28;100478.66;;;17.98;64.98
60854;BME280;48554;50.766;2.900;2022-10-26T01:41:54;100486.44;;;17.99;64.92
60854;BME280;48554;50.766;2.900;2022-10-26T01:44:36;100489.09;;;17.99;65.04
60854;BME280;48554;50.766;2.900;2022-10-26T01:46:58;100489.38;;;17.98;65.04
60854;BME280;48554;50.766;2.900;2022-10-26T01:49:22;100493.09;;;17.96;64.82
60854;BME280;48554;50.766;2.900;2022-10-26T01:51:47;100479.72;;;17.96;64.75
60854;BME280;48554;50.766;2.900;2022-10-26T01:54:09;100476.22;;;17.96;64.92
60854;BME280;48554;50.766;2.900;2022-10-26T01:56:31;100483.47;;;17.95;64.78
60854;BME280;48554;50.766;2.900;2022-10-26T01:59:21;100478.66;;;17.98;64.99
60854;BME280;48554;50.766;2.900;2022-10-26T02:04:10;100484.03;;;17.98;64.84
60854;BME280;48554;50.766;2.900;2022-10-26T02:15:16;100468.44;;;17.94;64.80
60854;BME280;48554;50.766;2.900;2022-10-26T02:20:03;100462.03;;;17.95;64.81
60854;BME280;48554;50.766;2.900;2022-10-26T02:22:28;100461.47;;;17.93;64.87
60854;BME280;48554;50.766;2.900;2022-10-26T02:24:52;100460.34;;;17.89;64.92
60854;BME280;48554;50.766;2.900;2022-10-26T02:27:15;100451.75;;;17.87;65.10
60854;BME280;48554;50.766;2.900;2022-10-26T02:29:38;100453.38;;;17.88;64.88
60854;BME280;48554;50.766;2.900;2022-10-26T02:32:01;100448.78;;;17.84;65.03
60854;BME280;48554;50.766;2.900;2022-10-26T02:34:24;100446.91;;;17.84;64.90
60854;BME280;48554;50.766;2.900;2022-10-26T02:36:48;100443.69;;;17.82;64.97
60854;BME280;48554;50.766;2.900;2022-10-26T02:39:11;100442.06;;;17.81;64.98
60854;BME280;48554;50.766;2.900;2022-10-26T02:41:34;100451.19;;;17.80;64.99
60854;BME280;48554;50.766;2.900;2022-10-26T02:44:01;100453.28;;;17.78;64.99
60854;BME280;48554;50.766;2.900;2022-10-26T02:46:25;100447.94;;;17.78;65.29
60854;BME280;48554;50.766;2.900;2022-10-26T02:48:46;100455.97;;;17.78;65.18
60854;BME280;48554;50.766;2.900;2022-10-26T02:51:38;100451.19;;;17.80;64.99
60854;BME280;48554;50.766;2.900;2022-10-26T02:54:13;100449.53;;;17.79;65.03
60854;BME280;48554;50.766;2.900;2022-10-26T02:56:42;100452.47;;;17.77;65.16
60854;BME280;48554;50.766;2.900;2022-10-26T02:59:06;100450.59;;;17.78;65.17
60854;BME280;48554;50.766;2.900;2022-10-26T03:01:29;100451.09;;;17.75;65.19
60854;BME280;48554;50.766;2.900;2022-10-26T03:03:50;100451.38;;;17.73;65.08
60854;BME280;48554;50.766;2.900;2022-10-26T03:06:10;100456.47;;;17.75;65.15
60854;BME280;48554;50.766;2.900;2022-10-26T03:08:30;100457.28;;;17.75;65.11
60854;BME280;48554;50.766;2.900;2022-10-26T03:10:51;100446.81;;;17.74;65.21
60854;BME280;48554;50.766;2.900;2022-10-26T03:13:12;100445.72;;;17.75;65.15
60854;BME280;48554;50.766;2.900;2022-10-26T03:15:32;100448.69;;;17.73;65.28
60854;BME280;48554;50.766;2.900;2022-10-26T03:17:53;100447.56;;;17.69;65.29
60854;BME280;48554;50.766;2.900;2022-10-26T03:20:13;100457.25;;;17.70;65.27
60854;BME280;48554;50.766;2.900;2022-10-26T03:22:33;100448.13;;;17.71;65.31
60854;BME280;48554;50.766;2.900;2022-10-26T03:24:53;100439.53;;;17.69;65.15
60854;BME280;48554;50.766;2.900;2022-10-26T03:27:14;100439.78;;;17.68;65.36
60854;BME280;48554;50.766;2.900;2022-10-26T03:29:34;100447.56;;;17.69;65.20
60854;BME280;48554;50.766;2.900;2022-10-26T03:31:54;100451.56;;;17.67;65.13
60854;BME280;48554;50.766;2.900;2022-10-26T03:34:15;100456.94;;;17.67;65.28
60854;BME280;48554;50.766;2.900;2022-10-26T03:36:35;100446.22;;;17.67;65.64
60854;BME280;48554;50.766;2.900;2022-10-26T03:38:55;100447.28;;;17.66;65.38
60854;BME280;48554;50.766;2.900;2022-10-26T03:41:15;100449.97;;;17.66;65.25
60854;BME280;48554;50.766;2.900;2022-10-26T03:43:36;100452.09;;;17.64;65.28
60854;BME280;48554;50.766;2.900;2022-10-26T03:45:56;100443.78;;;17.65;65.24
60854;BME280;48554;50.766;2.900;2022-10-26T03:48:16;100442.97;;;17.65;65.18
60854;BME280;48554;50.766;2.900;2022-10-26T03:50:37;100447.78;;;17.63;65.26
60854;BME280;48554;50.766;2.900;2022-10-26T03:52:57;100439.75;;;17.63;65.40
60854;BME280;48554;50.766;2.900;2022-10-26T03:55:17;100452.09;;;17.64;65.35
60854;BME280;48554;50.766;2.900;2022-10-26T03:57:42;100453.75;;;17.70;65.30
60854;BME280;48554;50.766;2.900;2022-10-26T04:00:02;100443.56;;;17.72;65.09
60854;BME280;48554;50.766;2.900;2022-10-26T04:02:23;100446.81;;;17.74;65.06
60854;BME280;48554;50.766;2.900;2022-10-26T04:04:43;100445.22;;;17.73;65.22
60854;BME280;48554;50.766;2.900;2022-10-26T04:07:03;100445.72;;;17.75;65.29
60854;BME280;48554;50.766;2.900;2022-10-26T04:09:24;100443.88;;;17.75;65.18
60854;BME280;48554;50.766;2.900;2022-10-26T04:11:44;100437.69;;;17.75;65.20
60854;BME280;48554;50.766;2.900;2022-10-26T04:14:04;100436.09;;;17.74;65.30
60854;BME280;48554;50.766;2.900;2022-10-26T04:16:25;100446.00;;;17.73;65.31
60854;BME280;48554;50.766;2.900;2022-10-26T04:18:45;100450.06;;;17.76;65.13
60854;BME280;48554;50.766;2.900;2022-10-26T04:21:06;100456.47;;;17.75;65.13
60854;BME280;48554;50.766;2.900;2022-10-26T04:23:26;100446.81;;;17.74;65.28
60854;BME280;48554;50.766;2.900;2022-10-26T04:25:46;100443.88;;;17.75;65.35
60854;BME280;48554;50.766;2.900;2022-10-26T04:28:07;100449.50;;;17.74;65.24
60854;BME280;48554;50.766;2.900;2022-10-26T04:30:28;100450.56;;;17.73;65.43
60854;BME280;48554;50.766;2.900;2022-10-26T04:32:49;100444.38;;;17.72;65.34
60854;BME280;48554;50.766;2.900;2022-10-26T04:35:10;100451.88;;;17.70;65.42
60854;BME280;48554;50.766;2.900;2022-10-26T04:37:30;100450.56;;;17.73;65.29
60854;BME280;48554;50.766;2.900;2022-10-26T04:39:50;100453.78;;;17.75;65.21
60854;BME280;48554;50.766;2.900;2022-10-26T04:42:10;100454.59;;;17.75;65.21
60854;BME280;48554;50.766;2.900;2022-10-26T04:44:32;100464.50;;;17.75;65.07
60854;BME280;48554;50.766;2.900;2022-10-26T04:46:52;100457.53;;;17.74;65.21
60854;BME280;48554;50.766;2.900;2022-10-26T04:49:12;100447.88;;;17.73;65.16
60854;BME280;48554;50.766;2.900;2022-10-26T04:51:33;100454.56;;;17.70;65.24
60854;BME280;48554;50.766;2.900;2022-10-26T04:53:53;100450.56;;;17.73;65.50
60854;BME280;48554;50.766;2.900;2022-10-26T04:56:14;100449.75;;;17.72;65.30
60854;BME280;48554;50.766;2.900;2022-10-26T04:58:34;100445.69;;;17.70;65.42
60854;BME280;48554;50.766;2.900;2022-10-26T05:00:54;100438.75;;;17.69;65.22
60854;BME280;48554;50.766;2.900;2022-10-26T05:03:14;100445.22;;;17.73;65.31
60854;BME280;48554;50.766;2.900;2022-10-26T05:05:35;100451.88;;;17.70;65.34
60854;BME280;48554;50.766;2.900;2022-10-26T05:07:55;100467.13;;;17.70;65.18
60854;BME280;48554;50.766;2.900;2022-10-26T05:10:16;100482.16;;;17.71;65.16
60854;BME280;48554;50.766;2.900;2022-10-26T05:12:36;100490.19;;;17.71;65.40
60854;BME280;48554;50.766;2.900;2022-10-26T05:14:56;100494.75;;;17.70;65.42
60854;BME280;48554;50.766;2.900;2022-10-26T05:17:16;100488.13;;;17.78;65.29
60854;BME280;48554;50.766;2.900;2022-10-26T05:19:37;100482.75;;;17.78;65.18
60854;BME280;48554;50.766;2.900;2022-10-26T05:21:57;100491.69;;;17.84;64.81
60854;BME280;48554;50.766;2.900;2022-10-26T05:24:18;100489.28;;;17.87;64.55
60854;BME280;48554;50.766;2.900;2022-10-26T05:26:38;100486.06;;;17.85;64.81
60854;BME280;48554;50.766;2.900;2022-10-26T05:28:58;100497.59;;;17.86;64.94
60854;BME280;48554;50.766;2.900;2022-10-26T05:31:19;100504.31;;;17.88;64.94
60854;BME280;48554;50.766;2.900;2022-10-26T05:33:40;100500.31;;;17.91;64.78
60854;BME280;48554;50.766;2.900;2022-10-26T05:36:00;100509.44;;;17.90;64.84
60854;BME280;48554;50.766;2.900;2022-10-26T05:38:20;100518.28;;;17.90;64.98
60854;BME280;48554;50.766;2.900;2022-10-26T05:40:51;100517.19;;;17.91;64.83
60854;BME280;48554;50.766;2.900;2022-10-26T05:43:11;100517.75;;;17.93;64.81
60854;BME280;48554;50.766;2.900;2022-10-26T05:45:32;100519.09;;;17.96;65.09
60854;BME280;48554;50.766;2.900;2022-10-26T05:47:52;100526.91;;;17.98;64.66
60854;BME280;48554;50.766;2.900;2022-10-26T05:50:12;100529.06;;;18.01;65.38
60854;BME280;48554;50.766;2.900;2022-10-26T05:52:43;100540.88;;;18.00;65.67
60854;BME280;48554;50.766;2.900;2022-10-26T05:55:05;100544.59;;;17.99;65.32
60854;BME280;48554;50.766;2.900;2022-10-26T05:57:26;100542.16;;;17.97;65.46
60854;BME280;48554;50.766;2.900;2022-10-26T05:59:46;100547.53;;;17.97;66.22
60854;BME280;48554;50.766;2.900;2022-10-26T06:02:25;100560.13;;;17.96;66.41
60854;BME280;48554;50.766;2.900;2022-10-26T06:04:47;100564.13;;;17.94;66.65
60854;BME280;48554;50.766;2.900;2022-10-26T06:07:12;100566.78;;;17.94;66.80
60854;BME280;48554;50.766;2.900;2022-10-26T06:09:33;100561.16;;;17.90;67.08
60854;BME280;48554;50.766;2.900;2022-10-26T06:11:54;100557.91;;;17.88;66.78
60854;BME280;48554;50.766;2.900;2022-10-26T06:14:14;100568.88;;;17.87;67.25
60854;BME280;48554;50.766;2.900;2022-10-26T06:16:48;100565.34;;;17.81;67.64
60854;BME280;48554;50.766;2.900;2022-10-26T06:19:39;100568.25;;;17.80;67.74
60854;BME280;48554;50.766;2.900;2022-10-26T06:30:05;100568.94;;;17.70;68.09
60854;BME280;48554;50.766;2.900;2022-10-26T06:32:26;100574.31;;;17.70;68.13
60854;BME280;48554;50.766;2.900;2022-10-26T06:34:48;100572.69;;;17.69;68.11
60854;BME280;48554;50.766;2.900;2022-10-26T06:37:10;100579.09;;;17.68;67.97
60854;BME280;48554;50.766;2.900;2022-10-26T06:39:34;100593.56;;;17.67;68.05
60854;BME280;48554;50.766;2.900;2022-10-26T06:41:57;100594.63;;;17.66;67.97
60854;BME280;48554;50.766;2.900;2022-10-26T06:44:21;100598.38;;;17.65;68.22
60854;BME280;48554;50.766;2.900;2022-10-26T06:46:47;100597.31;;;17.66;67.78
60854;BME280;48554;50.766;2.900;2022-10-26T06:49:22;100602.13;;;17.64;67.93
60854;BME280;48554;50.766;2.900;2022-10-26T06:54:35;100612.84;;;17.64;67.98
60854;BME280;48554;50.766;2.900;2022-10-26T06:57:02;100614.44;;;17.65;67.69
60854;BME280;48554;50.766;2.900;2022-10-26T06:59:36;100628.09;;;17.63;67.95
60854;BME280;48554;50.766;2.900;2022-10-26T07:01:58;100628.34;;;17.62;67.85
60854;BME280;48554;50.766;2.900;2022-10-26T07:04:18;100627.28;;;17.63;67.80
60854;BME280;48554;50.766;2.900;2022-10-26T07:06:38;100639.63;;;17.64;67.88
60854;BME280;48554;50.766;2.900;2022-10-26T07:08:58;100643.34;;;17.63;68.16
60854;BME280;48554;50.766;2.900;2022-10-26T07:11:18;100641.97;;;17.60;68.00
60854;BME280;48554;50.766;2.900;2022-10-26T07:13:39;100638.50;;;17.60;67.80
60854;BME280;48554;50.766;2.900;2022-10-26T07:15:59;100647.59;;;17.59;68.18
60854;BME280;48554;50.766;2.900;2022-10-26T07:18:19;100658.03;;;17.60;67.84
60854;BME280;48554;50.766;2.900;2022-10-26T07:20:40;100661.13;;;17.69;67.44
60854;BME280;48554;50.766;2.900;2022-10-26T07:23:00;100653.63;;;17.71;67.48
60854;BME280;48554;50.766;2.900;2022-10-26T07:25:22;100661.81;;;17.81;66.78
60854;BME280;48554;50.766;2.900;2022-10-26T07:27:42;100661.31;;;17.84;66.86
60854;BME280;48554;50.766;2.900;2022-10-26T07:30:03;100671.50;;;17.87;66.64
60854;BME280;48554;50.766;2.900;2022-10-26T07:32:24;100663.25;;;17.89;66.57
60854;BME280;48554;50.766;2.900;2022-10-26T07:34:44;100675.31;;;17.91;66.51
60854;BME280;48554;50.766;2.900;2022-10-26T07:37:04;100676.69;;;17.94;66.41
60854;BME280;48554;50.766;2.900;2022-10-26T07:39:25;100682.84;;;17.94;66.30
60854;BME280;48554;50.766;2.900;2022-10-26T07:41:45;100686.91;;;17.97;66.29
60854;BME280;48554;50.766;2.900;2022-10-26T07:44:05;100692.03;;;17.99;66.47
60854;BME280;48554;50.766;2.900;2022-10-26T07:46:26;100702.75;;;17.99;66.39
60854;BME280;48554;50.766;2.900;2022-10-26T07:48:46;100694.47;;;18.00;66.61
60854;BME280;48554;50.766;2.900;2022-10-26T07:51:06;100708.66;;;18.01;66.40
60854;BME280;48554;50.766;2.900;2022-10-26T07:53:26;100709.25;;;18.03;66.46
60854;BME280;48554;50.766;2.900;2022-10-26T07:55:54;100708.16;;;18.04;66.36
60854;BME280;48554;50.766;2.900;2022-10-26T07:58:14;100715.69;;;18.07;66.03
60854;BME280;48554;50.766;2.900;2022-10-26T08:00:35;100720.81;;;18.08;66.08
60854;BME280;48554;50.766;2.900;2022-10-26T08:02:55;100720.00;;;18.08;66.01
60854;BME280;48554;50.766;2.900;2022-10-26T08:05:16;100733.41;;;18.08;65.99
60854;BME280;48554;50.766;2.900;2022-10-26T08:07:41;100735.28;;;18.07;66.09
60854;BME280;48554;50.766;2.900;2022-10-26T08:10:01;100741.47;;;18.08;66.22
60854;BME280;48554;50.766;2.900;2022-10-26T08:12:21;100740.38;;;18.09;65.93
60854;BME280;48554;50.766;2.900;2022-10-26T08:14:42;100742.59;;;18.12;65.97
60854;BME280;48554;50.766;2.900;2022-10-26T08:17:02;100738.84;;;18.13;65.98
60854;BME280;48554;50.766;2.900;2022-10-26T08:19:22;100746.88;;;18.13;65.91
60854;BME280;48554;50.766;2.900;2022-10-26T08:21:43;100753.38;;;18.17;65.81
60854;BME280;48554;50.766;2.900;2022-10-26T08:24:03;100746.13;;;18.17;65.71
60854;BME280;48554;50.766;2.900;2022-10-26T08:26:23;100747.50;;;18.20;65.65
60854;BME280;48554;50.766;2.900;2022-10-26T08:28:47;100753.91;;;18.19;65.70
60854;BME280;48554;50.766;2.900;2022-10-26T08:31:07;100750.97;;;18.21;65.65
60854;BME280;48554;50.766;2.900;2022-10-26T08:33:28;100748.06;;;18.22;65.46
60854;BME280;48554;50.766;2.900;2022-10-26T08:35:53;100749.66;;;18.23;65.44
60854;BME280;48554;50.766;2.900;2022-10-26T08:38:14;100767.38;;;18.24;65.52
60854;BME280;48554;50.766;2.900;2022-10-26T08:40:37;100771.44;;;18.27;65.48
60854;BME280;48554;50.766;2.900;2022-10-26T08:43:19;100779.22;;;18.28;65.30
60854;BME280;48554;50.766;2.900;2022-10-26T08:46:04;100771.16;;;18.28;65.38
60854;BME280;48554;50.766;2.900;2022-10-26T08:48:31;100784.59;;;18.28;65.38
60854;BME280;48554;50.766;2.900;2022-10-26T08:50:58;100787.03;;;18.30;65.43
60854;BME280;48554;50.766;2.900;2022-10-26T08:53:35;100788.91;;;18.29;65.36
60854;BME280;48554;50.766;2.900;2022-10-26T08:56:05;100781.41;;;18.31;65.25
60854;BME280;48554;50.766;2.900;2022-10-26T08:58:35;100787.59;;;18.32;65.38
60854;BME280;48554;50.766;2.900;2022-10-26T09:00:57;100780.34;;;18.32;65.36
60854;BME280;48554;50.766;2.900;2022-10-26T09:03:18;100790.84;;;18.34;65.33
60854;BME280;48554;50.766;2.900;2022-10-26T09:10:42;100788.69;;;18.36;65.15
60854;BME280;48554;50.766;2.900;2022-10-26T09:13:27;100803.47;;;18.38;65.18
60854;BME280;48554;50.766;2.900;2022-10-26T09:21:37;100809.38;;;18.40;65.40
60854;BME280;48554;50.766;2.900;2022-10-26T09:24:12;100821.75;;;18.42;65.38
60854;BME280;48554;50.766;2.900;2022-10-26T09:29:15;100823.38;;;18.43;65.35
60854;BME280;48554;50.766;2.900;2022-10-26T09:31:41;100831.97;;;18.45;65.37
60854;BME280;48554;50.766;2.900;2022-10-26T09:34:04;100828.22;;;18.46;65.42
60854;BME280;48554;50.766;2.900;2022-10-26T09:36:27;100835.22;;;18.47;65.42
60854;BME280;48554;50.766;2.900;2022-10-26T09:41:26;100834.72;;;18.50;65.38
60854;BME280;48554;50.766;2.900;2022-10-26T09:43:53;100837.41;;;18.50;65.45
60854;BME280;48554;50.766;2.900;2022-10-26T09:47:09;100844.41;;;18.51;65.49
60854;BME280;48554;50.766;2.900;2022-10-26T09:49:07;100854.06;;;18.52;65.34
60854;BME280;48554;50.766;2.900;2022-10-26T09:51:29;100854.88;;;18.52;65.38
60854;BME280;48554;50.766;2.900;2022-10-26T09:53:49;100853.25;;;18.51;65.46
60854;BME280;48554;50.766;2.900;2022-10-26T09:56:11;100858.34;;;18.53;65.44
60854;BME280;48554;50.766;2.900;2022-10-26T09:58:36;100861.03;;;18.53;65.63
60854;BME280;48554;50.766;2.900;2022-10-26T10:00:59;100858.34;;;18.53;65.58
60854;BME280;48554;50.766;2.900;2022-10-26T10:03:28;100860.00;;;18.54;65.46
60854;BME280;48554;50.766;2.900;2022-10-26T10:05:49;100868.03;;;18.54;65.38
60854;BME280;48554;50.766;2.900;2022-10-26T10:08:14;100876.66;;;18.56;65.45
60854;BME280;48554;50.766;2.900;2022-10-26T10:10:35;100879.88;;;18.58;65.32
60854;BME280;48554;50.766;2.900;2022-10-26T10:12:56;100886.88;;;18.59;65.60
60854;BME280;48554;50.766;2.900;2022-10-26T10:15:20;100885.81;;;18.60;65.58
60854;BME280;48554;50.766;2.900;2022-10-26T10:17:46;100882.31;;;18.59;65.56
60854;BME280;48554;50.766;2.900;2022-10-26T10:20:07;100893.84;;;18.60;65.61
60854;BME280;48554;50.766;2.900;2022-10-26T10:22:28;100896.31;;;18.61;65.55
60854;BME280;48554;50.766;2.900;2022-10-26T10:29:39;100912.69;;;18.65;65.70
60854;BME280;48554;50.766;2.900;2022-10-26T10:32:01;100904.66;;;18.65;65.65
60854;BME280;48554;50.766;2.900;2022-10-26T10:34:22;100907.31;;;18.65;65.62
60854;BME280;48554;50.766;2.900;2022-10-26T10:36:42;100908.97;;;18.66;65.78
60854;BME280;48554;50.766;2.900;2022-10-26T10:41:44;100911.16;;;18.69;65.71
60854;BME280;48554;50.766;2.900;2022-10-26T10:44:12;100913.81;;;18.69;65.87
60854;BME280;48554;50.766;2.900;2022-10-26T10:46:34;100918.69;;;18.72;65.88
60854;BME280;48554;50.766;2.900;2022-10-26T10:49:04;100931.06;;;18.73;65.69
60854;BME280;48554;50.766;2.900;2022-10-26T10:51:25;100926.50;;;18.74;65.80
60854;BME280;48554;50.766;2.900;2022-10-26T10:53:54;100933.28;;;18.76;65.79
60854;BME280;48554;50.766;2.900;2022-10-26T11:07:06;100940.56;;;18.81;65.86
60854;BME280;48554;50.766;2.900;2022-10-26T11:09:28;100939.25;;;18.84;65.87
60854;BME280;48554;50.766;2.900;2022-10-26T11:12:24;100951.59;;;18.85;65.86
60854;BME280;48554;50.766;2.900;2022-10-26T11:14:55;100961.28;;;18.86;65.90
60854;BME280;48554;50.766;2.900;2022-10-26T11:17:29;100959.19;;;18.88;65.87
60854;BME280;48554;50.766;2.900;2022-10-26T11:20:05;100957.53;;;18.87;65.90
60854;BME280;48554;50.766;2.900;2022-10-26T11:22:37;100962.66;;;18.88;65.93
60854;BME280;48554;50.766;2.900;2022-10-26T11:25:16;100959.72;;;18.90;65.98
60854;BME280;48554;50.766;2.900;2022-10-26T11:27:49;100961.34;;;18.91;65.98
60854;BME280;48554;50.766;2.900;2022-10-26T11:30:22;100965.66;;;18.92;65.94
60854;BME280;48554;50.766;2.900;2022-10-26T11:32:52;100962.72;;;18.93;65.91
60854;BME280;48554;50.766;2.900;2022-10-26T11:35:21;100962.47;;;18.95;65.91
60854;BME280;48554;50.766;2.900;2022-10-26T11:40:31;100950.66;;;18.96;65.83
60854;BME280;48554;50.766;2.900;2022-10-26T11:43:11;100955.78;;;18.97;65.78
60854;BME280;48554;50.766;2.900;2022-10-26T11:45:37;100959.28;;;18.98;65.98
60854;BME280;48554;50.766;2.900;2022-10-26T11:50:32;100962.53;;;19.00;65.87
60854;BME280;48554;50.766;2.900;2022-10-26T11:52:59;100962.53;;;19.00;65.70
60854;BME280;48554;50.766;2.900;2022-10-26T11:55:22;100969.50;;;19.01;65.79
60854;BME280;48554;50.766;2.900;2022-10-26T11:57:44;100969.50;;;19.01;65.79
60854;BME280;48554;50.766;2.900;2022-10-26T12:00:17;100969.50;;;19.01;65.81
60854;BME280;48554;50.766;2.900;2022-10-26T12:02:40;100973.56;;;19.03;65.79
60854;BME280;48554;50.766;2.900;2022-10-26T12:05:22;100976.53;;;19.02;65.82
60854;BME280;48554;50.766;2.900;2022-10-26T12:07:51;100984.06;;;19.05;65.79
60854;BME280;48554;50.766;2.900;2022-10-26T12:10:42;100980.59;;;19.05;65.79
60854;BME280;48554;50.766;2.900;2022-10-26T12:18:42;100982.44;;;19.04;65.91
60854;BME280;48554;50.766;2.900;2022-10-26T12:21:05;100992.63;;;19.02;65.83
60854;BME280;48554;50.766;2.900;2022-10-26T12:23:33;100994.25;;;19.03;65.71
60854;BME280;48554;50.766;2.900;2022-10-26T12:28:42;101003.06;;;18.98;65.97
60854;BME280;48554;50.766;2.900;2022-10-26T12:33:55;101002.25;;;18.98;65.72
60854;BME280;48554;50.766;2.900;2022-10-26T12:36:47;101011.09;;;18.98;65.85
60854;BME280;48554;50.766;2.900;2022-10-26T12:39:26;101012.19;;;18.97;65.78
60854;BME280;48554;50.766;2.900;2022-10-26T12:41:55;101018.59;;;18.96;65.72
60854;BME280;48554;50.766;2.900;2022-10-26T12:46:51;101015.09;;;18.96;65.80
60854;BME280;48554;50.766;2.900;2022-10-26T12:52:20;101018.59;;;18.96;65.65
60854;BME280;48554;50.766;2.900;2022-10-26T12:54:52;101016.72;;;18.97;65.69
60854;BME280;48554;50.766;2.900;2022-10-26T13:00:21;101024.53;;;18.98;65.77
60854;BME280;48554;50.766;2.900;2022-10-26T13:03:09;101020.25;;;18.97;65.65
60854;BME280;48554;50.766;2.900;2022-10-26T13:05:41;101022.66;;;18.99;65.66
60854;BME280;48554;50.766;2.900;2022-10-26T13:08:10;101034.75;;;19.01;65.59
60854;BME280;48554;50.766;2.900;2022-10-26T13:10:32;101028.59;;;19.01;65.81
60854;BME280;48554;50.766;2.900;2022-10-26T13:12:56;101036.41;;;19.02;65.64
60854;BME280;48554;50.766;2.900;2022-10-26T13:15:20;101034.75;;;19.01;65.76
60854;BME280;48554;50.766;2.900;2022-10-26T13:17:41;101040.47;;;19.05;65.78
60854;BME280;48554;50.766;2.900;2022-10-26T13:20:04;101030.53;;;19.06;65.80
60854;BME280;48554;50.766;2.900;2022-10-26T13:22:25;101044.75;;;19.06;65.71
60854;BME280;48554;50.766;2.900;2022-10-26T13:24:49;101049.09;;;19.07;65.79
60854;BME280;48554;50.766;2.900;2022-10-26T13:29:31;101055.00;;;19.09;65.88
60854;BME280;48554;50.766;2.900;2022-10-26T13:31:53;101056.06;;;19.08;65.63
60854;BME280;48554;50.766;2.900;2022-10-26T13:34:19;101054.47;;;19.07;65.93
60854;BME280;48554;50.766;2.900;2022-10-26T13:36:41;101059.81;;;19.07;65.77
60854;BME280;48554;50.766;2.900;2022-10-26T13:39:26;101057.94;;;19.08;65.79
60854;BME280;48554;50.766;2.900;2022-10-26T13:41:51;101055.78;;;19.05;65.88
60854;BME280;48554;50.766;2.900;2022-10-26T13:44:21;101072.69;;;19.05;65.85
60854;BME280;48554;50.766;2.900;2022-10-26T13:46:42;101067.81;;;19.02;65.82
60854;BME280;48554;50.766;2.900;2022-10-26T13:49:07;101073.19;;;19.02;65.79
60854;BME280;48554;50.766;2.900;2022-10-26T13:51:45;101071.56;;;19.01;65.69
60854;BME280;48554;50.766;2.900;2022-10-26T13:54:22;101075.31;;;19.00;65.74
60854;BME280;48554;50.766;2.900;2022-10-26T13:57:02;101072.88;;;18.98;65.73
60854;BME280;48554;50.766;2.900;2022-10-26T13:59:25;101074.19;;;18.96;65.62
60854;BME280;48554;50.766;2.900;2022-10-26T14:04:27;101077.44;;;18.98;65.78
60854;BME280;48554;50.766;2.900;2022-10-26T14:06:50;101082.81;;;18.98;65.73
60854;BME280;48554;50.766;2.900;2022-10-26T14:09:12;101084.91;;;18.96;65.86
60854;BME280;48554;50.766;2.900;2022-10-26T14:11:41;101089.22;;;18.97;65.64
60854;BME280;48554;50.766;2.900;2022-10-26T14:14:03;101090.28;;;18.96;65.58
60854;BME280;48554;50.766;2.900;2022-10-26T14:16:26;101095.66;;;18.96;65.50